createdAt,value
2017-04-04T00:00:25.326Z,0
2017-04-04T00:01:25.344Z,0
2017-04-04T00:02:25.369Z,0
2017-04-04T00:03:25.390Z,0
2017-04-04T00:04:25.405Z,0
2017-04-04T00:05:40.042Z,0
2017-04-04T00:06:25.447Z,0
2017-04-04T00:07:25.469Z,0
2017-04-04T00:08:25.488Z,0
2017-04-04T00:09:25.514Z,0
2017-04-04T00:10:25.531Z,0
2017-04-04T00:11:25.554Z,0
2017-04-04T00:12:25.273Z,0
2017-04-04T00:13:25.289Z,0
2017-04-04T00:14:40.230Z,0
2017-04-04T00:15:25.634Z,0
2017-04-04T00:16:25.349Z,0
2017-04-04T00:17:25.671Z,0
2017-04-04T00:18:25.701Z,0
2017-04-04T00:19:40.334Z,0
2017-04-04T00:20:40.355Z,0
2017-04-04T00:21:25.760Z,0
2017-04-04T00:22:25.779Z,0
2017-04-04T00:23:40.412Z,0
2017-04-04T00:24:25.815Z,0
2017-04-04T00:25:25.847Z,0
2017-04-04T00:26:25.868Z,0
2017-04-04T00:27:25.881Z,0
2017-04-04T00:28:25.908Z,0
2017-04-04T00:29:40.540Z,0
2017-04-04T00:30:25.952Z,0
2017-04-04T00:31:25.968Z,0
2017-04-04T00:32:25.984Z,0
2017-04-04T00:33:25.702Z,0
2017-04-04T00:34:40.341Z,0
2017-04-04T00:35:26.089Z,0
2017-04-04T00:36:40.380Z,0
2017-04-04T00:37:40.704Z,0
2017-04-04T00:38:26.109Z,0
2017-04-04T00:39:40.745Z,0
2017-04-04T00:40:40.466Z,0
2017-04-04T00:41:26.170Z,0
2017-04-04T00:42:40.808Z,0
2017-04-04T00:45:26.259Z,0
2017-04-04T00:46:25.971Z,0
2017-04-04T00:47:26.298Z,0
2017-04-04T00:48:26.318Z,0
2017-04-04T00:49:26.339Z,0
2017-04-04T00:50:26.061Z,0
2017-04-04T00:51:40.691Z,0
2017-04-04T00:52:26.397Z,0
2017-04-04T00:53:26.421Z,0
2017-04-04T00:54:26.443Z,0
2017-04-04T00:55:41.074Z,0
2017-04-04T00:56:26.483Z,0
2017-04-04T00:57:41.116Z,0
2017-04-04T00:58:26.523Z,0
2017-04-04T00:59:26.593Z,0
2017-04-04T01:00:26.579Z,0
2017-04-04T01:01:41.305Z,0
2017-04-04T01:02:26.301Z,0
2017-04-04T01:03:26.925Z,0
2017-04-04T01:04:26.645Z,0
2017-04-04T01:05:26.670Z,0
2017-04-04T01:06:26.989Z,0
2017-04-04T01:07:26.711Z,0
2017-04-04T01:08:26.729Z,0
2017-04-04T01:09:26.755Z,0
2017-04-04T01:10:26.783Z,0
2017-04-04T01:11:26.792Z,0
2017-04-04T01:12:26.813Z,0
2017-04-04T01:13:26.833Z,0
2017-04-04T01:14:41.470Z,0
2017-04-04T01:15:41.489Z,0
2017-04-04T01:16:26.593Z,0
2017-04-04T01:17:41.535Z,0
2017-04-04T01:18:26.937Z,0
2017-04-04T01:19:26.654Z,0
2017-04-04T01:20:26.976Z,0
2017-04-04T01:21:27.001Z,0
2017-04-04T01:22:27.023Z,0
2017-04-04T01:23:27.036Z,0
2017-04-04T01:24:41.675Z,0
2017-04-04T01:25:27.082Z,0
2017-04-04T01:26:41.715Z,0
2017-04-04T01:28:27.142Z,0
2017-04-04T01:29:27.167Z,0
2017-04-04T01:30:26.886Z,0
2017-04-04T01:31:26.902Z,0
2017-04-04T01:32:26.923Z,0
2017-04-04T01:33:41.860Z,0
2017-04-04T01:34:27.267Z,0
2017-04-04T01:35:26.989Z,0
2017-04-04T01:36:27.309Z,0
2017-04-04T01:37:27.024Z,0
2017-04-04T01:38:27.344Z,0
2017-04-04T01:39:27.367Z,0
2017-04-04T01:40:27.398Z,0
2017-04-04T01:41:42.025Z,0
2017-04-04T01:42:27.433Z,0
2017-04-04T01:43:27.452Z,0
2017-04-04T01:44:27.478Z,0
2017-04-04T01:45:27.495Z,0
2017-04-04T01:46:27.519Z,0
2017-04-04T01:47:27.533Z,0
2017-04-04T01:48:26.953Z,0
2017-04-04T01:49:42.194Z,0
2017-04-04T01:50:26.990Z,0
2017-04-04T01:51:27.621Z,0
2017-04-04T01:52:27.029Z,0
2017-04-04T01:53:27.664Z,0
2017-04-04T01:54:27.684Z,0
2017-04-04T01:55:27.700Z,0
2017-04-04T01:56:27.718Z,0
2017-04-04T01:57:27.746Z,0
2017-04-04T01:58:27.762Z,0
2017-04-04T01:59:42.399Z,0
2017-04-04T02:00:27.504Z,0
2017-04-04T02:01:27.830Z,0
2017-04-04T02:02:27.540Z,0
2017-04-04T02:03:27.866Z,0
2017-04-04T02:04:42.400Z,0
2017-04-04T02:05:27.602Z,0
2017-04-04T02:06:27.924Z,0
2017-04-04T02:07:27.948Z,0
2017-04-04T02:08:27.966Z,0
2017-04-04T02:09:28.028Z,0
2017-04-04T02:10:28.012Z,0
2017-04-04T02:11:27.729Z,0
2017-04-04T02:12:42.668Z,0
2017-04-04T02:13:42.684Z,0
2017-04-04T02:14:27.786Z,0
2017-04-04T02:16:28.132Z,0
2017-04-04T02:17:42.766Z,0
2017-04-04T02:18:28.171Z,0
2017-04-04T02:19:27.889Z,0
2017-04-04T02:20:28.267Z,0
2017-04-04T02:21:27.933Z,0
2017-04-04T02:22:28.264Z,0
2017-04-04T02:23:28.273Z,0
2017-04-04T02:24:28.296Z,0
2017-04-04T02:25:28.016Z,0
2017-04-04T02:26:28.338Z,0
2017-04-04T02:27:42.670Z,0
2017-04-04T02:28:42.994Z,0
2017-04-04T02:29:28.396Z,0
2017-04-04T02:30:28.425Z,0
2017-04-04T02:31:28.442Z,0
2017-04-04T02:34:28.507Z,0
2017-04-04T02:35:28.526Z,0
2017-04-04T02:36:43.159Z,0
2017-04-04T02:37:27.957Z,0
2017-04-04T02:38:28.583Z,0
2017-04-04T02:39:28.604Z,0
2017-04-04T02:40:28.624Z,0
2017-04-04T02:41:43.263Z,0
2017-04-04T02:42:28.665Z,0
2017-04-04T02:43:28.725Z,0
2017-04-04T02:44:28.404Z,0
2017-04-04T02:45:28.428Z,0
2017-04-04T02:46:43.362Z,0
2017-04-04T02:47:27.856Z,0
2017-04-04T02:48:28.788Z,0
2017-04-04T02:49:28.511Z,0
2017-04-04T02:50:28.832Z,0
2017-04-04T02:51:28.851Z,0
2017-04-04T02:52:43.485Z,0
2017-04-04T02:53:42.906Z,0
2017-04-04T02:54:28.919Z,0
2017-04-04T02:55:28.931Z,0
2017-04-04T02:56:28.954Z,0
2017-04-04T02:57:43.591Z,0
2017-04-04T02:58:28.997Z,0
2017-04-04T02:59:29.264Z,0
2017-04-04T03:00:43.651Z,0
2017-04-04T03:01:29.058Z,0
2017-04-04T03:02:29.082Z,0
2017-04-04T03:03:28.795Z,0
2017-04-04T03:04:43.732Z,0
2017-04-04T03:05:29.139Z,0
2017-04-04T03:06:29.159Z,0
2017-04-04T03:07:29.180Z,0
2017-04-04T03:08:43.815Z,0
2017-04-04T03:09:28.914Z,0
2017-04-04T03:10:29.242Z,0
2017-04-04T03:11:29.263Z,0
2017-04-04T03:12:29.282Z,0
2017-04-04T03:13:29.299Z,0
2017-04-04T03:14:29.319Z,0
2017-04-04T03:15:29.343Z,0
2017-04-04T03:16:29.363Z,0
2017-04-04T03:17:29.382Z,0
2017-04-04T03:18:29.401Z,0
2017-04-04T03:19:29.420Z,0
2017-04-04T03:20:44.059Z,0
2017-04-04T03:21:29.465Z,0
2017-04-04T03:22:29.490Z,0
2017-04-04T03:24:44.138Z,0
2017-04-04T03:25:29.545Z,0
2017-04-04T03:26:29.258Z,0
2017-04-04T03:27:29.590Z,0
2017-04-04T03:28:29.603Z,0
2017-04-04T03:29:29.632Z,0
2017-04-04T03:30:29.342Z,0
2017-04-04T03:31:29.668Z,0
2017-04-04T03:32:29.694Z,0
2017-04-04T03:33:29.407Z,0
2017-04-04T03:35:44.061Z,0
2017-04-04T03:36:29.772Z,0
2017-04-04T03:38:29.204Z,0
2017-04-04T03:39:44.449Z,0
2017-04-04T03:40:29.852Z,0
2017-04-04T03:41:29.874Z,0
2017-04-04T03:42:29.894Z,0
2017-04-04T03:43:29.914Z,0
2017-04-04T03:44:29.939Z,0
2017-04-04T03:45:29.651Z,0
2017-04-04T03:46:29.975Z,0
2017-04-04T03:47:29.995Z,0
2017-04-04T03:48:30.015Z,0
2017-04-04T03:49:29.779Z,0
2017-04-04T03:51:44.694Z,0
2017-04-04T03:52:30.099Z,0
2017-04-04T03:53:29.814Z,0
2017-04-04T03:54:30.137Z,0
2017-04-04T03:55:30.163Z,0
2017-04-04T03:56:30.182Z,0
2017-04-04T03:57:30.202Z,0
2017-04-04T03:58:29.915Z,0
2017-04-04T03:59:29.632Z,0
2017-04-04T04:00:30.260Z,0
2017-04-04T04:01:30.287Z,0
2017-04-04T04:02:30.305Z,0
2017-04-04T04:03:30.354Z,0
2017-04-04T04:04:30.337Z,4
2017-04-04T04:05:30.065Z,0
2017-04-04T04:06:30.079Z,0
2017-04-04T04:07:30.100Z,4
2017-04-04T04:09:30.145Z,4
2017-04-04T04:11:44.798Z,4
2017-04-04T04:12:30.505Z,8
2017-04-04T04:13:30.525Z,12
2017-04-04T04:14:30.546Z,12
2017-04-04T04:15:44.881Z,16
2017-04-04T04:16:30.587Z,16
2017-04-04T04:17:30.604Z,20
2017-04-04T04:18:30.626Z,20
2017-04-04T04:19:30.692Z,20
2017-04-04T04:21:45.382Z,28
2017-04-04T04:22:30.708Z,32
2017-04-04T04:23:30.123Z,40
2017-04-04T04:24:45.369Z,52
2017-04-04T04:25:30.805Z,52
2017-04-04T04:26:30.793Z,64
2017-04-04T04:27:45.473Z,72
2017-04-04T04:28:30.828Z,76
2017-04-04T04:29:30.849Z,80
2017-04-04T04:30:30.869Z,84
2017-04-04T04:31:30.591Z,88
2017-04-04T04:32:30.913Z,92
2017-04-04T04:33:45.548Z,104
2017-04-04T04:34:30.952Z,120
2017-04-04T04:35:30.970Z,148
2017-04-04T04:36:31.147Z,180
2017-04-04T04:37:31.014Z,208
2017-04-04T04:38:31.031Z,228
2017-04-04T04:40:45.385Z,228
2017-04-04T04:41:31.098Z,224
2017-04-04T04:42:31.116Z,224
2017-04-04T04:43:45.748Z,256
2017-04-04T04:44:31.355Z,284
2017-04-04T04:45:30.873Z,340
2017-04-04T04:46:45.819Z,436
2017-04-04T04:47:30.610Z,504
2017-04-04T04:48:31.385Z,584
2017-04-04T04:49:45.878Z,660
2017-04-04T04:50:31.284Z,700
2017-04-04T04:51:45.912Z,776
2017-04-04T04:52:31.013Z,840
2017-04-04T04:53:31.337Z,944
2017-04-04T04:54:45.672Z,1060
2017-04-04T04:55:31.380Z,1112
2017-04-04T04:57:31.420Z,1280
2017-04-04T04:58:31.138Z,1360
2017-04-04T04:59:46.079Z,1444
2017-04-04T05:00:31.482Z,1504
2017-04-04T05:01:31.504Z,1588
2017-04-04T05:02:30.916Z,1668
2017-04-04T05:03:31.587Z,1760
2017-04-04T05:04:31.565Z,1904
2017-04-04T05:05:31.645Z,2136
2017-04-04T05:06:31.603Z,2420
2017-04-04T05:07:31.327Z,2632
2017-04-04T05:08:31.646Z,2804
2017-04-04T05:09:31.058Z,2944
2017-04-04T05:12:31.727Z,3776
2017-04-04T05:13:31.748Z,4096
2017-04-04T05:14:46.383Z,4488
2017-04-04T05:15:31.494Z,4820
2017-04-04T05:16:31.809Z,5076
2017-04-04T05:17:31.524Z,5076
2017-04-04T05:18:46.164Z,5508
2017-04-04T05:19:31.867Z,6052
2017-04-04T05:20:31.895Z,6168
2017-04-04T05:21:46.534Z,5804
2017-04-04T05:22:31.935Z,5936
2017-04-04T05:23:46.566Z,6164
2017-04-04T05:24:31.972Z,6384
2017-04-04T05:25:31.695Z,6728
2017-04-04T05:26:32.020Z,7036
2017-04-04T05:27:32.039Z,7468
2017-04-04T05:29:32.081Z,8744
2017-04-04T05:30:32.101Z,10168
2017-04-04T05:31:31.821Z,10812
2017-04-04T05:32:32.141Z,10148
2017-04-04T05:33:32.165Z,8324
2017-04-04T05:34:46.804Z,9428
2017-04-04T05:35:32.211Z,9972
2017-04-04T05:36:46.846Z,10544
2017-04-04T05:39:32.295Z,10636
2017-04-04T05:40:46.933Z,10660
2017-04-04T05:42:32.365Z,12264
2017-04-04T05:46:47.070Z,8100
2017-04-04T05:47:32.468Z,7416
2017-04-04T05:48:32.493Z,6176
2017-04-04T05:49:32.518Z,4860
2017-04-04T05:50:32.542Z,3772
2017-04-04T05:51:32.565Z,3080
2017-04-04T05:52:32.578Z,2556
2017-04-04T05:53:32.605Z,2240
2017-04-04T05:54:47.239Z,2208
2017-04-04T05:55:32.649Z,2308
2017-04-04T05:57:32.691Z,2536
2017-04-04T05:58:32.712Z,2696
2017-04-04T05:59:32.740Z,2752
2017-04-04T06:00:32.769Z,2708
2017-04-04T06:01:32.780Z,2844
2017-04-04T06:02:47.417Z,2968
2017-04-04T06:04:32.849Z,3148
2017-04-04T06:05:32.870Z,3008
2017-04-04T06:06:32.893Z,3024
2017-04-04T06:07:47.527Z,3304
2017-04-04T06:08:32.929Z,3560
2017-04-04T06:09:32.954Z,3544
2017-04-04T06:10:32.978Z,3360
2017-04-04T06:11:47.611Z,3056
2017-04-04T06:12:33.022Z,2956
2017-04-04T06:13:33.082Z,2956
2017-04-04T06:14:33.060Z,2808
2017-04-04T06:15:32.781Z,2472
2017-04-04T06:16:33.112Z,2500
2017-04-04T06:18:47.764Z,2392
2017-04-04T06:19:33.169Z,2324
2017-04-04T06:20:33.188Z,2096
2017-04-04T06:21:32.909Z,2012
2017-04-04T06:22:47.545Z,2204
2017-04-04T06:23:33.264Z,2364
2017-04-04T06:24:32.973Z,2524
2017-04-04T06:25:33.299Z,2852
2017-04-04T06:26:47.933Z,3044
2017-04-04T06:27:33.340Z,2984
2017-04-04T06:28:33.365Z,3016
2017-04-04T06:29:47.999Z,3064
2017-04-04T06:30:33.405Z,3116
2017-04-04T06:31:33.422Z,2948
2017-04-04T06:32:33.448Z,3044
2017-04-04T06:34:47.800Z,3168
2017-04-04T06:35:33.509Z,3268
2017-04-04T06:36:33.528Z,3480
2017-04-04T06:37:33.550Z,3392
2017-04-04T06:38:33.574Z,3532
2017-04-04T06:39:33.602Z,3444
2017-04-04T06:40:48.233Z,3348
2017-04-04T06:41:33.635Z,3444
2017-04-04T06:42:33.356Z,3328
2017-04-04T06:43:33.680Z,3028
2017-04-04T06:44:48.313Z,2892
2017-04-04T06:45:33.726Z,2952
2017-04-04T06:47:33.463Z,3124
2017-04-04T06:48:33.839Z,3056
2017-04-04T06:49:48.122Z,2924
2017-04-04T06:50:33.832Z,2900
2017-04-04T06:51:33.857Z,2776
2017-04-04T06:52:33.871Z,2652
2017-04-04T06:53:33.894Z,2608
2017-04-04T06:54:33.616Z,2648
2017-04-04T06:55:33.935Z,2716
2017-04-04T06:56:48.572Z,2756
2017-04-04T06:57:33.978Z,2656
2017-04-04T06:58:33.995Z,2468
2017-04-04T06:59:34.025Z,2316
2017-04-04T07:00:48.359Z,2276
2017-04-04T07:01:34.062Z,2284
2017-04-04T07:02:34.083Z,2288
2017-04-04T07:04:34.126Z,2444
2017-04-04T07:05:34.149Z,2540
2017-04-04T07:06:34.169Z,2540
2017-04-04T07:07:33.892Z,2544
2017-04-04T07:08:34.210Z,2556
2017-04-04T07:09:33.625Z,2592
2017-04-04T07:10:34.255Z,2736
2017-04-04T07:11:34.279Z,2852
2017-04-04T07:12:34.295Z,2928
2017-04-04T07:13:34.320Z,3008
2017-04-04T07:14:34.341Z,3144
2017-04-04T07:15:34.365Z,3392
2017-04-04T07:17:34.407Z,3704
2017-04-04T07:18:49.039Z,3584
2017-04-04T07:19:34.448Z,3488
2017-04-04T07:20:34.162Z,3332
2017-04-04T07:21:49.106Z,3248
2017-04-04T07:22:34.508Z,3216
2017-04-04T07:23:34.528Z,3240
2017-04-04T07:24:34.550Z,3356
2017-04-04T07:25:34.268Z,3472
2017-04-04T07:26:34.589Z,3572
2017-04-04T07:27:34.315Z,3660
2017-04-04T07:28:48.642Z,3692
2017-04-04T07:29:34.655Z,3668
2017-04-04T07:30:34.681Z,3672
2017-04-04T07:31:34.699Z,3604
2017-04-04T07:32:34.718Z,3580
2017-04-04T07:33:34.738Z,3596
2017-04-04T07:34:34.764Z,3568
2017-04-04T07:35:34.785Z,3508
2017-04-04T07:36:34.804Z,3548
2017-04-04T07:37:49.440Z,3668
2017-04-04T07:38:34.239Z,3740
2017-04-04T07:39:34.874Z,3836
2017-04-04T07:40:34.895Z,3892
2017-04-04T07:41:49.528Z,3812
2017-04-04T07:42:34.974Z,3840
2017-04-04T07:43:34.954Z,3868
2017-04-04T07:44:49.594Z,3888
2017-04-04T07:45:34.992Z,3872
2017-04-04T07:46:35.018Z,3928
2017-04-04T07:47:34.429Z,4044
2017-04-04T07:48:35.060Z,3980
2017-04-04T07:49:35.084Z,3928
2017-04-04T07:50:34.799Z,4008
2017-04-04T07:51:35.128Z,4216
2017-04-04T07:52:35.145Z,4240
2017-04-04T07:53:49.784Z,4232
2017-04-04T07:54:35.186Z,4304
2017-04-04T07:55:35.209Z,4508
2017-04-04T07:56:35.228Z,4692
2017-04-04T07:57:35.258Z,4648
2017-04-04T07:58:34.969Z,4688
2017-04-04T07:59:49.911Z,4592
2017-04-04T08:00:35.315Z,4620
2017-04-04T08:01:35.334Z,4648
2017-04-04T08:02:35.354Z,4072
2017-04-04T08:03:35.378Z,3888
2017-04-04T08:04:35.398Z,3724
2017-04-04T08:05:35.119Z,3360
2017-04-04T08:07:35.468Z,3800
2017-04-04T08:08:35.533Z,3596
2017-04-04T08:09:50.121Z,3408
2017-04-04T08:10:35.527Z,3308
2017-04-04T08:11:35.549Z,3476
2017-04-04T08:12:35.573Z,3568
2017-04-04T08:13:35.589Z,4056
2017-04-04T08:14:35.618Z,5312
2017-04-04T08:15:35.634Z,6024
2017-04-04T08:16:35.355Z,5600
2017-04-04T08:17:35.670Z,5172
2017-04-04T08:18:35.704Z,5604
2017-04-04T08:19:50.335Z,6032
2017-04-04T08:20:50.393Z,6760
2017-04-04T08:21:35.757Z,7744
2017-04-04T08:22:35.519Z,8412
2017-04-04T08:23:35.806Z,8652
2017-04-04T08:24:50.441Z,8588
2017-04-04T08:25:35.854Z,10968
2017-04-04T08:26:35.863Z,6156
2017-04-04T08:27:35.891Z,4696
2017-04-04T08:28:35.909Z,3844
2017-04-04T08:29:35.934Z,3096
2017-04-04T08:30:35.953Z,2992
2017-04-04T08:31:35.974Z,3188
2017-04-04T08:33:36.014Z,3716
2017-04-04T08:35:36.058Z,4372
2017-04-04T08:36:36.086Z,4612
2017-04-04T08:37:35.800Z,4736
2017-04-04T08:39:36.155Z,7220
2017-04-04T08:40:36.172Z,7708
2017-04-04T08:41:36.188Z,7848
2017-04-04T08:42:36.215Z,7380
2017-04-04T08:43:36.231Z,6068
2017-04-04T08:44:36.254Z,8704
2017-04-04T08:45:36.283Z,7908
2017-04-04T08:46:36.298Z,8552
2017-04-04T08:47:50.630Z,7284
2017-04-04T08:48:36.343Z,6740
2017-04-04T08:49:36.060Z,6692
2017-04-04T08:50:36.389Z,7076
2017-04-04T08:51:36.410Z,7080
2017-04-04T08:52:36.429Z,6484
2017-04-04T08:53:36.450Z,5676
2017-04-04T08:54:36.169Z,5116
2017-04-04T08:55:36.494Z,4704
2017-04-04T08:56:51.137Z,4616
2017-04-04T08:57:36.232Z,4736
2017-04-04T08:58:36.558Z,4916
2017-04-04T08:59:36.589Z,4892
2017-04-04T09:00:36.295Z,4560
2017-04-04T09:01:36.628Z,4204
2017-04-04T09:02:51.262Z,3936
2017-04-04T09:03:50.979Z,3916
2017-04-04T09:04:51.304Z,4096
2017-04-04T09:06:36.738Z,4656
2017-04-04T09:07:36.753Z,4664
2017-04-04T09:08:36.774Z,4604
2017-04-04T09:10:36.821Z,4564
2017-04-04T09:11:36.842Z,4704
2017-04-04T09:12:51.476Z,4884
2017-04-04T09:13:36.882Z,4800
2017-04-04T09:14:36.906Z,4912
2017-04-04T09:15:36.927Z,5516
2017-04-04T09:16:36.649Z,5704
2017-04-04T09:17:36.660Z,5768
2017-04-04T09:18:36.992Z,6044
2017-04-04T09:19:37.067Z,6352
2017-04-04T09:20:51.648Z,6684
2017-04-04T09:21:36.751Z,7060
2017-04-04T09:22:51.689Z,7796
2017-04-04T09:23:37.105Z,8180
2017-04-04T09:24:36.817Z,8656
2017-04-04T09:25:36.534Z,9112
2017-04-04T09:26:37.167Z,9548
2017-04-04T09:27:36.885Z,9240
2017-04-04T09:28:51.819Z,8120
2017-04-04T09:29:37.229Z,7992
2017-04-04T09:30:37.252Z,7936
2017-04-04T09:31:37.271Z,7540
2017-04-04T09:32:51.608Z,6980
2017-04-04T09:33:37.314Z,6832
2017-04-04T09:34:37.338Z,6984
2017-04-04T09:35:51.977Z,7528
2017-04-04T09:36:37.378Z,8016
2017-04-04T09:37:52.016Z,9696
2017-04-04T09:38:37.424Z,12080
2017-04-04T09:39:37.442Z,12860
2017-04-04T09:40:52.082Z,13348
2017-04-04T09:41:37.494Z,14032
2017-04-04T09:42:37.510Z,15600
2017-04-04T09:43:37.541Z,13496
2017-04-04T09:44:52.171Z,12012
2017-04-04T09:45:37.581Z,11680
2017-04-04T09:46:37.641Z,11868
2017-04-04T09:47:37.621Z,12580
2017-04-04T09:48:37.653Z,13940
2017-04-04T09:49:52.293Z,15428
2017-04-04T09:50:52.308Z,18240
2017-04-04T09:51:37.720Z,15628
2017-04-04T09:52:37.737Z,14472
2017-04-04T09:53:37.767Z,15068
2017-04-04T09:55:37.803Z,12660
2017-04-04T09:56:37.531Z,12648
2017-04-04T09:57:37.850Z,13084
2017-04-04T09:58:37.572Z,14200
2017-04-04T09:59:52.514Z,14484
2017-04-04T10:00:37.925Z,15148
2017-04-04T10:01:37.647Z,13896
2017-04-04T10:02:37.969Z,12192
2017-04-04T10:03:37.991Z,10840
2017-04-04T10:04:38.016Z,10148
2017-04-04T10:05:38.038Z,10672
2017-04-04T10:06:38.062Z,13572
2017-04-04T10:07:38.086Z,15132
2017-04-04T10:08:38.106Z,14740
2017-04-04T10:10:38.151Z,12284
2017-04-04T10:11:38.183Z,11656
2017-04-04T10:13:38.228Z,9192
2017-04-04T10:14:38.268Z,8756
2017-04-04T10:15:38.274Z,8616
2017-04-04T10:16:38.293Z,8684
2017-04-04T10:17:38.320Z,8924
2017-04-04T10:18:38.083Z,9300
2017-04-04T10:19:38.370Z,9756
2017-04-04T10:20:53.010Z,10184
2017-04-04T10:21:38.420Z,10476
2017-04-04T10:22:38.438Z,10576
2017-04-04T10:23:38.157Z,10084
2017-04-04T10:24:38.494Z,9584
2017-04-04T10:25:38.517Z,9240
2017-04-04T10:26:53.152Z,8928
2017-04-04T10:27:38.554Z,8784
2017-04-04T10:28:38.582Z,8696
2017-04-04T10:29:38.602Z,8824
2017-04-04T10:30:38.633Z,9196
2017-04-04T10:31:53.273Z,9488
2017-04-04T10:32:38.374Z,9516
2017-04-04T10:33:38.396Z,9292
2017-04-04T10:34:38.727Z,8848
2017-04-04T10:35:38.439Z,8520
2017-04-04T10:36:38.773Z,8268
2017-04-04T10:37:38.786Z,7988
2017-04-04T10:38:38.815Z,7612
2017-04-04T10:39:38.842Z,7228
2017-04-04T10:40:38.600Z,7100
2017-04-04T10:41:53.503Z,7208
2017-04-04T10:42:53.525Z,7392
2017-04-04T10:43:53.599Z,7428
2017-04-04T10:44:39.008Z,7508
2017-04-04T10:45:39.035Z,7776
2017-04-04T10:46:39.005Z,7960
2017-04-04T10:47:53.638Z,7992
2017-04-04T10:48:39.046Z,8020
2017-04-04T10:49:39.073Z,8032
2017-04-04T10:50:39.096Z,8000
2017-04-04T10:51:53.736Z,7976
2017-04-04T10:52:39.138Z,7948
2017-04-04T10:53:39.160Z,7836
2017-04-04T10:54:39.188Z,7672
2017-04-04T10:55:39.210Z,7356
2017-04-04T10:56:39.233Z,7004
2017-04-04T10:57:53.924Z,6492
2017-04-04T10:58:39.286Z,6260
2017-04-04T10:59:53.616Z,5924
2017-04-04T11:00:39.325Z,5856
2017-04-04T11:01:39.349Z,5872
2017-04-04T11:02:39.373Z,6016
2017-04-04T11:03:54.016Z,6260
2017-04-04T11:04:39.422Z,6444
2017-04-04T11:05:39.442Z,6556
2017-04-04T11:06:39.462Z,6592
2017-04-04T11:07:39.532Z,6588
2017-04-04T11:08:54.131Z,6564
2017-04-04T11:09:39.539Z,6536
2017-04-04T11:10:39.565Z,6496
2017-04-04T11:11:39.280Z,6660
2017-04-04T11:12:53.928Z,7160
2017-04-04T11:13:39.637Z,7608
2017-04-04T11:14:54.272Z,8500
2017-04-04T11:15:39.676Z,9080
2017-04-04T11:16:39.702Z,9860
2017-04-04T11:17:39.724Z,10584
2017-04-04T11:18:39.750Z,11028
2017-04-04T11:19:54.082Z,11240
2017-04-04T11:21:39.818Z,11060
2017-04-04T11:23:39.864Z,10736
2017-04-04T11:24:39.888Z,10528
2017-04-04T11:25:54.225Z,10440
2017-04-04T11:26:39.939Z,10088
2017-04-04T11:27:39.959Z,9724
2017-04-04T11:28:54.596Z,9080
2017-04-04T11:29:40.017Z,8572
2017-04-04T11:30:40.028Z,7948
2017-04-04T11:31:40.050Z,7396
2017-04-04T11:32:40.073Z,6876
2017-04-04T11:33:40.106Z,6428
2017-04-04T11:35:09.058Z,6112
2017-04-04T11:35:40.152Z,6100
2017-04-04T11:36:54.793Z,6208
2017-04-04T11:37:40.194Z,6328
2017-04-04T11:38:40.221Z,6472
2017-04-04T11:39:40.247Z,6692
2017-04-04T11:40:40.265Z,7064
2017-04-04T11:41:54.905Z,7496
2017-04-04T11:42:54.928Z,7632
2017-04-04T11:43:54.952Z,7608
2017-04-04T11:46:40.145Z,6876
2017-04-04T11:49:40.478Z,6204
2017-04-04T11:50:40.505Z,6120
2017-04-04T11:51:40.529Z,6016
2017-04-04T11:52:40.545Z,5876
2017-04-04T11:53:40.577Z,5764
2017-04-04T11:54:40.599Z,5620
2017-04-04T11:55:40.617Z,5372
2017-04-04T11:56:40.643Z,5156
2017-04-04T11:57:40.674Z,5004
2017-04-04T11:58:40.690Z,4980
2017-04-04T11:59:40.719Z,5008
2017-04-04T12:01:40.763Z,4896
2017-04-04T12:02:40.781Z,4808
2017-04-04T12:04:40.829Z,4600
2017-04-04T12:05:40.850Z,4516
2017-04-04T12:06:55.494Z,4508
2017-04-04T12:07:40.901Z,4572
2017-04-04T12:08:40.618Z,4708
2017-04-04T12:09:40.946Z,4900
2017-04-04T12:10:40.362Z,5144
2017-04-04T12:11:41.096Z,5432
2017-04-04T12:12:41.010Z,5740
2017-04-04T12:13:41.038Z,6064
2017-04-04T12:14:41.061Z,6380
2017-04-04T12:15:41.087Z,6588
2017-04-04T12:17:55.746Z,6600
2017-04-04T12:18:41.156Z,6488
2017-04-04T12:19:41.178Z,6372
2017-04-04T12:20:41.197Z,6304
2017-04-04T12:21:41.230Z,6352
2017-04-04T12:22:55.861Z,6492
2017-04-04T12:23:41.275Z,6600
2017-04-04T12:24:41.297Z,6792
2017-04-04T12:25:41.317Z,7020
2017-04-04T12:26:41.338Z,7268
2017-04-04T12:27:41.060Z,7492
2017-04-04T12:28:41.388Z,7612
2017-04-04T12:29:56.025Z,7640
2017-04-04T12:31:41.492Z,7664
2017-04-04T12:32:41.477Z,7752
2017-04-04T12:33:41.499Z,7844
2017-04-04T12:34:41.527Z,7932
2017-04-04T12:35:41.551Z,8064
2017-04-04T12:36:41.574Z,8252
2017-04-04T12:37:41.595Z,8440
2017-04-04T12:38:56.234Z,8516
2017-04-04T12:39:41.645Z,8440
2017-04-04T12:40:41.667Z,8308
2017-04-04T12:41:56.344Z,8164
2017-04-04T12:42:41.715Z,8068
2017-04-04T12:43:41.734Z,7888
2017-04-04T12:44:41.772Z,7660
2017-04-04T12:45:56.404Z,7396
2017-04-04T12:46:41.815Z,7292
2017-04-04T12:47:41.224Z,7196
2017-04-04T12:48:42.257Z,7088
2017-04-04T12:49:41.878Z,6964
2017-04-04T12:50:41.907Z,6840
2017-04-04T12:51:41.934Z,6724
2017-04-04T12:52:41.955Z,6640
2017-04-04T12:53:41.968Z,6560
2017-04-04T12:54:56.615Z,6384
2017-04-04T12:55:42.020Z,6248
2017-04-04T12:56:41.740Z,6028
2017-04-04T12:57:42.067Z,5808
2017-04-04T12:58:56.705Z,5588
2017-04-04T12:59:42.116Z,5516
2017-04-04T13:00:42.132Z,5444
2017-04-04T13:01:42.160Z,5372
2017-04-04T13:02:42.180Z,5280
2017-04-04T13:03:41.907Z,5244
2017-04-04T13:04:41.921Z,5228
2017-04-04T13:05:56.867Z,5252
2017-04-04T13:06:41.976Z,5268
2017-04-04T13:07:42.295Z,5232
2017-04-04T13:08:42.016Z,5172
2017-04-04T13:09:56.956Z,5128
2017-04-04T13:10:42.059Z,5120
2017-04-04T13:11:42.387Z,5124
2017-04-04T13:12:42.109Z,5124
2017-04-04T13:13:42.131Z,5116
2017-04-04T13:14:42.458Z,5092
2017-04-04T13:15:42.477Z,5064
2017-04-04T13:16:42.504Z,5020
2017-04-04T13:17:42.527Z,4984
2017-04-04T13:18:42.247Z,4972
2017-04-04T13:19:42.570Z,5020
2017-04-04T13:20:42.292Z,5100
2017-04-04T13:21:57.233Z,5172
2017-04-04T13:23:42.666Z,5248
2017-04-04T13:24:42.686Z,5240
2017-04-04T13:25:42.710Z,5188
2017-04-04T13:26:42.430Z,5088
2017-04-04T13:27:42.755Z,4948
2017-04-04T13:28:42.477Z,4788
2017-04-04T13:29:42.806Z,4608
2017-04-04T13:30:42.824Z,4436
2017-04-04T13:31:42.849Z,4296
2017-04-04T13:32:42.874Z,4184
2017-04-04T13:33:42.890Z,4092
2017-04-04T13:34:57.783Z,3980
2017-04-04T13:35:57.555Z,3896
2017-04-04T13:36:42.960Z,3824
2017-04-04T13:37:57.599Z,3724
2017-04-04T13:38:42.703Z,3680
2017-04-04T13:39:43.032Z,3628
2017-04-04T13:40:43.049Z,3612
2017-04-04T13:41:57.692Z,3448
2017-04-04T13:42:43.096Z,3260
2017-04-04T13:43:43.116Z,3004
2017-04-04T13:44:43.155Z,2696
2017-04-04T13:46:43.487Z,2376
2017-04-04T13:47:43.219Z,2320
2017-04-04T13:48:43.231Z,2264
2017-04-04T13:49:43.256Z,2188
2017-04-04T13:50:43.290Z,2144
2017-04-04T13:51:43.306Z,2128
2017-04-04T13:52:43.325Z,2180
2017-04-04T13:53:43.349Z,2320
2017-04-04T13:54:43.373Z,2488
2017-04-04T13:55:43.091Z,2620
2017-04-04T13:56:58.037Z,2716
2017-04-04T13:57:58.055Z,2804
2017-04-04T13:58:43.460Z,2860
2017-04-04T13:59:43.482Z,2828
2017-04-04T14:00:43.507Z,2712
2017-04-04T14:01:43.526Z,2676
2017-04-04T14:02:43.557Z,2728
2017-04-04T14:03:43.571Z,2840
2017-04-04T14:04:43.593Z,3000
2017-04-04T14:05:43.615Z,3152
2017-04-04T14:06:43.638Z,3288
2017-04-04T14:07:43.666Z,3332
2017-04-04T14:08:43.689Z,3356
2017-04-04T14:09:43.712Z,3380
2017-04-04T14:10:43.740Z,3536
2017-04-04T14:11:43.752Z,3688
2017-04-04T14:12:43.779Z,3836
2017-04-04T14:13:58.415Z,3844
2017-04-04T14:15:43.845Z,3700
2017-04-04T14:16:43.869Z,3708
2017-04-04T14:17:43.890Z,3824
2017-04-04T14:18:43.909Z,3992
2017-04-04T14:19:58.552Z,4084
2017-04-04T14:20:43.966Z,4092
2017-04-04T14:21:44.008Z,4032
2017-04-04T14:22:44.002Z,3936
2017-04-04T14:23:44.026Z,3888
2017-04-04T14:25:44.076Z,4108
2017-04-04T14:27:44.120Z,4268
2017-04-04T14:28:44.136Z,4296
2017-04-04T14:29:58.778Z,4156
2017-04-04T14:30:44.184Z,4020
2017-04-04T14:31:44.264Z,3900
2017-04-04T14:32:44.229Z,3828
2017-04-04T14:33:44.254Z,3780
2017-04-04T14:34:44.276Z,3684
2017-04-04T14:35:44.298Z,3516
2017-04-04T14:36:44.020Z,3388
2017-04-04T14:37:44.380Z,3260